createdAt,value
2022-11-18T00:01:24.696Z,75.78
2022-11-18T00:03:53.483Z,75.95
2022-11-18T00:06:24.524Z,76.27
2022-11-18T00:08:53.926Z,76.19
2022-11-18T00:11:43.707Z,76.10
2022-11-18T00:14:24.792Z,76.15
2022-11-18T00:17:01.775Z,76.52
2022-11-18T00:19:32.702Z,76.38
2022-11-18T00:22:01.599Z,76.57
2022-11-18T00:24:30.073Z,76.23
2022-11-18T00:26:58.451Z,76.42
2022-11-18T00:29:28.513Z,76.54
2022-11-18T00:31:57.565Z,76.54
2022-11-18T00:34:26.046Z,76.59
2022-11-18T00:36:54.218Z,76.57
2022-11-18T00:39:23.106Z,76.49
2022-11-18T00:42:09.508Z,76.41
2022-11-18T00:44:37.684Z,76.58
2022-11-18T00:47:06.162Z,76.33
2022-11-18T00:49:34.337Z,76.36
2022-11-18T00:52:02.510Z,76.48
2022-11-18T00:54:30.583Z,76.39
2022-11-18T00:56:58.884Z,76.54
2022-11-18T00:59:27.032Z,76.37
2022-11-18T01:01:55.152Z,76.10
2022-11-18T01:04:23.436Z,76.48
2022-11-18T01:06:51.577Z,76.37
2022-11-18T01:09:19.872Z,76.24
2022-11-18T01:12:17.368Z,76.11
2022-11-18T01:14:45.666Z,76.11
2022-11-18T01:17:13.739Z,76.19
2022-11-18T01:19:41.810Z,76.45
2022-11-18T01:22:09.879Z,76.41
2022-11-18T01:24:38.054Z,76.48
2022-11-18T01:27:06.330Z,76.53
2022-11-18T01:29:34.502Z,76.33
2022-11-18T01:32:23.540Z,76.32
2022-11-18T01:34:50.718Z,76.41
2022-11-18T01:37:19.197Z,75.75
2022-11-18T01:39:47.274Z,76.11
2022-11-18T01:42:17.804Z,76.12
2022-11-18T01:45:19.967Z,76.17
2022-11-18T01:47:52.526Z,76.49
2022-11-18T01:50:22.361Z,76.22
2022-11-18T01:52:52.782Z,75.84
2022-11-18T01:55:26.386Z,76.09
2022-11-18T01:58:03.978Z,76.36
2022-11-18T02:00:32.152Z,76.23
2022-11-18T02:03:02.477Z,76.18
2022-11-18T02:05:33.925Z,76.13
2022-11-18T02:08:03.227Z,76.12
2022-11-18T02:10:31.708Z,76.25
2022-11-18T02:13:00.802Z,76.21
2022-11-18T02:16:00.004Z,76.48
2022-11-18T02:18:46.825Z,76.41
2022-11-18T02:21:42.636Z,76.24
2022-11-18T02:24:10.810Z,76.20
2022-11-18T02:26:57.436Z,76.03
2022-11-18T02:29:31.219Z,75.89
2022-11-18T02:32:06.672Z,76.12
2022-11-18T02:34:50.813Z,76.11
2022-11-18T02:37:48.273Z,76.25
2022-11-18T02:40:29.962Z,76.51
2022-11-18T02:43:07.455Z,76.50
2022-11-18T02:45:38.089Z,76.18
2022-11-18T02:48:10.672Z,76.52
2022-11-18T02:50:42.422Z,76.15
2022-11-18T02:53:14.486Z,76.08
2022-11-18T02:55:44.708Z,76.20
2022-11-18T02:58:15.646Z,76.16
2022-11-18T03:00:45.138Z,76.22
2022-11-18T03:03:34.419Z,76.13
2022-11-18T03:06:27.475Z,76.50
2022-11-18T03:08:55.454Z,75.96
2022-11-18T03:11:27.203Z,76.26
2022-11-18T03:14:29.681Z,76.10
2022-11-18T03:17:39.636Z,76.45
2022-11-18T03:20:28.390Z,75.93
2022-11-18T03:23:06.395Z,75.68
2022-11-18T03:25:48.903Z,75.74
2022-11-18T03:28:38.482Z,75.70
2022-11-18T03:31:14.954Z,75.86
2022-11-18T03:33:48.958Z,75.96
2022-11-18T03:36:21.845Z,76.01
2022-11-18T03:38:54.630Z,76.07
2022-11-18T03:41:26.383Z,76.24
2022-11-18T03:44:04.736Z,76.08
2022-11-18T03:46:39.420Z,76.30
2022-11-18T03:49:12.819Z,75.73
2022-11-18T03:51:47.132Z,75.93
2022-11-18T03:54:36.915Z,75.80
2022-11-18T03:57:12.458Z,75.93
2022-11-18T03:59:50.873Z,76.17
2022-11-18T04:02:25.487Z,76.09
2022-11-18T04:04:57.336Z,75.95
2022-11-18T04:07:54.509Z,76.12
2022-11-18T04:10:35.286Z,75.87
2022-11-18T04:13:10.109Z,76.10
2022-11-18T04:15:39.820Z,76.06
2022-11-18T04:18:08.403Z,75.97
2022-11-18T04:20:37.717Z,75.64
2022-11-18T04:23:07.425Z,76.06
2022-11-18T04:25:36.399Z,75.92
2022-11-18T04:28:05.486Z,76.25
2022-11-18T04:30:33.577Z,76.00
2022-11-18T04:33:01.745Z,75.96
2022-11-18T04:35:29.919Z,75.99
2022-11-18T04:37:58.092Z,76.02
2022-11-18T04:40:26.162Z,75.47
2022-11-18T04:42:54.238Z,75.45
2022-11-18T04:45:22.307Z,75.49
2022-11-18T04:47:50.377Z,75.66
2022-11-18T04:50:18.448Z,75.61
2022-11-18T04:52:46.523Z,75.70
2022-11-18T04:55:14.592Z,75.64
2022-11-18T04:57:42.683Z,75.82
2022-11-18T05:00:12.678Z,75.84
2022-11-18T05:02:40.749Z,75.75
2022-11-18T05:05:08.838Z,75.81
2022-11-18T05:07:36.977Z,75.75
2022-11-18T05:10:05.890Z,75.64
2022-11-18T05:12:49.018Z,75.85
2022-11-18T05:15:19.435Z,75.76
2022-11-18T05:17:47.956Z,75.66
2022-11-18T05:20:17.051Z,75.68
2022-11-18T05:22:45.200Z,75.80
2022-11-18T05:25:13.254Z,75.80
2022-11-18T05:27:41.326Z,75.89
2022-11-18T05:30:10.412Z,75.66
2022-11-18T05:32:38.619Z,75.57
2022-11-18T05:35:07.506Z,75.81
2022-11-18T05:37:35.558Z,75.91
2022-11-18T05:40:04.544Z,75.74
2022-11-18T05:42:51.157Z,76.04
2022-11-18T05:45:20.662Z,76.09
2022-11-18T05:48:09.006Z,76.18
2022-11-18T05:50:38.495Z,76.14
2022-11-18T05:53:06.790Z,76.19
2022-11-18T05:55:44.689Z,76.13
2022-11-18T05:58:12.763Z,75.93
2022-11-18T06:00:41.651Z,75.89
2022-11-18T06:03:16.127Z,75.92
2022-11-18T06:05:44.666Z,75.72
2022-11-18T06:08:15.289Z,75.59
2022-11-18T06:10:46.225Z,75.87
2022-11-18T06:13:21.161Z,75.70
2022-11-18T06:15:49.536Z,75.75
2022-11-18T06:18:24.982Z,75.89
2022-11-18T06:20:56.913Z,75.69
2022-11-18T06:23:24.910Z,75.45
2022-11-18T06:25:53.494Z,75.78
2022-11-18T06:28:22.589Z,75.91
2022-11-18T06:30:50.764Z,76.11
2022-11-18T06:33:18.937Z,75.76
2022-11-18T06:35:47.008Z,75.89
2022-11-18T06:38:15.048Z,76.07
2022-11-18T06:40:44.918Z,75.90
2022-11-18T06:43:32.008Z,75.60
2022-11-18T06:46:20.968Z,75.99
2022-11-18T06:48:49.552Z,75.80
2022-11-18T06:51:18.229Z,75.68
2022-11-18T06:53:46.619Z,75.84
2022-11-18T06:56:16.822Z,75.71
2022-11-18T06:58:45.219Z,75.74
2022-11-18T07:01:18.854Z,75.51
2022-11-18T07:03:47.606Z,75.35
2022-11-18T07:06:19.056Z,75.55
2022-11-18T07:08:48.276Z,75.59
2022-11-18T07:11:19.397Z,75.54
2022-11-18T07:13:48.156Z,75.67
2022-11-18T07:16:21.376Z,75.73
2022-11-18T07:18:51.598Z,75.44
2022-11-18T07:21:22.229Z,75.70
2022-11-18T07:23:50.813Z,75.66
2022-11-18T07:26:19.193Z,76.00
2022-11-18T07:28:47.364Z,75.99
2022-11-18T07:31:20.664Z,76.08
2022-11-18T07:33:48.940Z,75.79
2022-11-18T07:36:20.179Z,75.65
2022-11-18T07:38:48.865Z,76.02
2022-11-18T07:41:25.229Z,75.83
2022-11-18T07:44:00.277Z,75.92
2022-11-18T07:46:36.246Z,75.63
2022-11-18T07:49:06.956Z,75.76
2022-11-18T07:51:37.384Z,75.57
2022-11-18T07:54:10.468Z,75.70
2022-11-18T07:56:38.849Z,75.75
2022-11-18T07:59:07.330Z,75.57
2022-11-18T08:01:35.868Z,75.72
2022-11-18T08:04:10.231Z,75.54
2022-11-18T08:06:39.740Z,75.42
2022-11-18T08:09:08.425Z,75.66
2022-11-18T08:11:37.473Z,75.44
2022-11-18T08:14:05.687Z,75.89
2022-11-18T08:16:33.735Z,75.82
2022-11-18T08:19:01.933Z,75.82
2022-11-18T08:21:30.003Z,75.86
2022-11-18T08:23:59.200Z,75.96
2022-11-18T08:26:28.160Z,75.58
2022-11-18T08:28:57.795Z,75.58
2022-11-18T08:31:28.233Z,75.76
2022-11-18T08:33:57.429Z,75.52
2022-11-18T08:36:27.447Z,75.94
2022-11-18T08:39:00.838Z,75.34
2022-11-18T08:41:38.235Z,75.54
2022-11-18T08:44:08.639Z,75.59
2022-11-18T08:46:36.726Z,75.45
2022-11-18T08:49:05.204Z,75.47
2022-11-18T08:51:33.587Z,75.42
2022-11-18T08:54:01.757Z,75.40
2022-11-18T08:56:30.136Z,75.42
2022-11-18T08:58:58.312Z,75.41
2022-11-18T09:01:26.750Z,75.48
2022-11-18T09:03:55.067Z,75.07
2022-11-18T09:06:25.080Z,75.01
2022-11-18T09:08:53.993Z,75.21
2022-11-18T09:11:26.760Z,74.75
2022-11-18T09:16:45.631Z,75.28
2022-11-18T09:19:45.751Z,75.52
2022-11-18T09:22:04.912Z,75.49
2022-11-18T09:24:33.637Z,74.99
2022-11-18T09:27:06.199Z,75.08
2022-11-18T09:29:35.888Z,75.06
2022-11-18T09:32:04.165Z,74.95
2022-11-18T09:34:35.790Z,75.03
2022-11-18T09:37:06.848Z,75.15
2022-11-18T09:39:37.481Z,74.95
2022-11-18T09:42:12.732Z,74.69
2022-11-18T09:45:12.910Z,74.87
2022-11-18T09:47:41.743Z,74.95
2022-11-18T09:53:22.126Z,74.88
2022-11-18T09:55:51.729Z,75.04
2022-11-18T09:58:40.179Z,74.89
2022-11-18T10:01:18.507Z,74.69
2022-11-18T10:03:46.876Z,74.72
2022-11-18T10:06:32.252Z,74.53
2022-11-18T10:09:03.398Z,74.65
2022-11-18T10:11:54.911Z,74.30
2022-11-18T10:14:30.028Z,74.36
2022-11-18T10:17:04.057Z,74.23
2022-11-18T10:19:39.500Z,74.34
2022-11-18T10:22:31.105Z,74.57
2022-11-18T10:25:01.038Z,74.65
2022-11-18T10:27:39.349Z,74.57
2022-11-18T10:30:17.990Z,74.55
2022-11-18T10:33:04.369Z,74.33
2022-11-18T10:35:37.764Z,74.30
2022-11-18T10:38:08.682Z,73.83
2022-11-18T10:40:40.569Z,73.63
2022-11-18T10:43:11.108Z,73.65
2022-11-18T10:45:40.086Z,73.92
2022-11-18T10:48:20.649Z,73.98
2022-11-18T10:50:55.561Z,73.74
2022-11-18T10:53:37.712Z,73.81
2022-11-18T10:56:09.135Z,73.44
2022-11-18T10:58:50.516Z,73.32
2022-11-18T11:01:26.215Z,73.38
2022-11-18T11:04:03.156Z,73.58
2022-11-18T11:06:40.539Z,73.25
2022-11-18T11:09:14.646Z,73.12
2022-11-18T11:12:00.133Z,72.93
2022-11-18T11:14:36.901Z,73.08
2022-11-18T11:17:19.039Z,72.97
2022-11-18T11:20:23.120Z,72.98
2022-11-18T11:22:51.291Z,72.82
2022-11-18T11:28:45.907Z,72.64
2022-11-18T11:31:29.234Z,72.49
2022-11-18T11:34:23.006Z,72.56
2022-11-18T11:36:54.457Z,72.66
2022-11-18T11:39:31.541Z,72.53
2022-11-18T11:42:17.636Z,72.59
2022-11-18T11:45:05.775Z,72.31
2022-11-18T11:47:47.568Z,72.21
2022-11-18T11:50:31.001Z,72.27
2022-11-18T11:53:08.081Z,72.22
2022-11-18T11:55:41.170Z,71.94
2022-11-18T11:58:30.958Z,72.01
2022-11-18T12:01:12.640Z,71.98
2022-11-18T12:03:52.331Z,72.19
2022-11-18T12:06:20.662Z,72.12
2022-11-18T12:09:12.257Z,72.21
2022-11-18T12:11:57.969Z,71.95
2022-11-18T12:14:44.575Z,72.05
2022-11-18T12:17:29.441Z,71.85
2022-11-18T12:19:57.818Z,71.99
2022-11-18T12:23:14.734Z,72.08
2022-11-18T12:25:48.643Z,72.32
2022-11-18T12:28:44.132Z,72.21
2022-11-18T12:31:18.283Z,72.16
2022-11-18T12:34:19.009Z,72.01
2022-11-18T12:36:47.669Z,72.04
2022-11-18T12:39:24.979Z,72.01
2022-11-18T12:42:23.671Z,71.94
2022-11-18T12:44:52.771Z,71.89
2022-11-18T12:47:42.647Z,71.51
2022-11-18T12:50:16.167Z,71.18
2022-11-18T12:52:44.216Z,71.22
2022-11-18T12:55:25.600Z,71.43
2022-11-18T12:57:53.774Z,71.61
2022-11-18T13:00:24.713Z,71.83
2022-11-18T13:02:56.162Z,71.86
2022-11-18T13:05:35.088Z,71.63
2022-11-18T13:08:15.902Z,71.08
2022-11-18T13:10:44.256Z,71.18
2022-11-18T13:13:19.781Z,71.20
2022-11-18T13:16:17.446Z,71.40
2022-11-18T13:18:53.785Z,71.23
2022-11-18T13:21:46.458Z,71.25
2022-11-18T13:24:22.270Z,71.26
2022-11-18T13:26:59.600Z,71.40
2022-11-18T13:29:36.993Z,71.44
2022-11-18T13:32:23.700Z,71.56
2022-11-18T13:34:54.639Z,71.55
2022-11-18T13:37:29.057Z,71.67
2022-11-18T13:39:57.727Z,71.51
2022-11-18T13:42:29.091Z,71.51
2022-11-18T13:44:59.519Z,71.51
2022-11-18T13:47:27.997Z,71.20
2022-11-18T13:50:02.114Z,71.32
2022-11-18T13:52:33.048Z,71.21
2022-11-18T13:55:07.164Z,71.31
2022-11-18T13:57:36.974Z,71.40
2022-11-18T14:00:23.204Z,71.13
2022-11-18T14:02:59.843Z,71.14
2022-11-18T14:05:28.653Z,71.25
2022-11-18T14:08:06.436Z,71.06
2022-11-18T14:10:45.231Z,71.09
2022-11-18T14:13:20.799Z,71.00
2022-11-18T14:15:49.177Z,70.82
2022-11-18T14:18:31.791Z,70.92
2022-11-18T14:21:01.603Z,70.64
2022-11-18T14:23:33.983Z,70.98
2022-11-18T14:26:05.322Z,70.88
2022-11-18T14:28:37.391Z,71.00
2022-11-18T14:31:27.808Z,70.98
2022-11-18T14:34:21.834Z,70.71
2022-11-18T14:36:51.573Z,70.89
2022-11-18T14:39:28.766Z,70.90
2022-11-18T14:41:57.852Z,70.71
2022-11-18T14:44:27.749Z,70.82
2022-11-18T14:47:02.596Z,70.74
2022-11-18T14:49:32.989Z,70.72
2022-11-18T14:52:02.886Z,70.64
2022-11-18T14:54:31.702Z,70.66
2022-11-18T14:57:04.972Z,70.71
2022-11-18T14:59:33.399Z,70.55
2022-11-18T15:02:01.749Z,70.59
2022-11-18T15:04:30.055Z,70.28
2022-11-18T15:06:58.187Z,70.45
2022-11-18T15:09:26.405Z,70.59
2022-11-18T15:11:54.470Z,70.73
2022-11-18T15:14:22.540Z,70.70
2022-11-18T15:16:50.715Z,70.73
2022-11-18T15:19:19.093Z,70.73
2022-11-18T15:21:47.266Z,70.77
2022-11-18T15:24:15.791Z,70.41
2022-11-18T15:26:46.078Z,70.32
2022-11-18T15:29:23.666Z,70.30
2022-11-18T15:31:52.249Z,70.06
2022-11-18T15:34:21.784Z,70.23
2022-11-18T15:36:50.337Z,70.35
2022-11-18T15:39:18.614Z,70.42
2022-11-18T15:41:46.687Z,70.61
2022-11-18T15:44:14.754Z,70.67
2022-11-18T15:46:42.927Z,70.64
2022-11-18T15:49:14.159Z,70.64
2022-11-18T15:51:42.768Z,70.50
2022-11-18T15:54:10.937Z,70.60
2022-11-18T15:56:40.141Z,70.51
2022-11-18T15:59:13.527Z,70.32
2022-11-18T16:01:47.241Z,70.13
2022-11-18T16:04:19.143Z,70.33
2022-11-18T16:06:48.777Z,70.26
2022-11-18T16:09:18.364Z,70.38
2022-11-18T16:12:05.829Z,70.32
2022-11-18T16:14:38.203Z,70.48
2022-11-18T16:17:06.278Z,70.39
2022-11-18T16:19:34.356Z,70.29
2022-11-18T16:22:02.520Z,70.42
2022-11-18T16:24:30.797Z,70.28
2022-11-18T16:26:59.072Z,70.22
2022-11-18T16:29:27.245Z,70.58
2022-11-18T16:31:55.519Z,70.78
2022-11-18T16:34:26.355Z,70.68
2022-11-18T16:37:02.452Z,70.89
2022-11-18T16:39:30.487Z,70.89
2022-11-18T16:42:07.467Z,71.00
2022-11-18T16:44:37.392Z,70.88
2022-11-18T16:47:12.320Z,70.83
2022-11-18T16:49:43.121Z,70.51
2022-11-18T16:52:11.225Z,70.51
2022-11-18T16:54:44.757Z,70.82
2022-11-18T16:57:14.635Z,71.10
2022-11-18T16:59:43.110Z,70.88
2022-11-18T17:02:14.987Z,70.96
2022-11-18T17:04:43.451Z,70.81
2022-11-18T17:07:12.598Z,70.65
2022-11-18T17:09:41.028Z,70.68
2022-11-18T17:12:09.204Z,70.77
2022-11-18T17:14:38.727Z,70.91
2022-11-18T17:17:07.493Z,70.91
2022-11-18T17:19:35.772Z,70.92
2022-11-18T17:22:04.148Z,70.90
2022-11-18T17:24:32.425Z,70.78
2022-11-18T17:27:00.599Z,70.92
2022-11-18T17:29:29.182Z,71.00
2022-11-18T17:31:57.457Z,70.49
2022-11-18T17:34:25.631Z,70.65
2022-11-18T17:36:53.789Z,70.75
2022-11-18T17:39:21.877Z,70.71
2022-11-18T17:42:08.697Z,70.89
2022-11-18T17:44:36.859Z,71.04
2022-11-18T17:47:05.033Z,71.03
2022-11-18T17:49:33.315Z,71.02
2022-11-18T17:52:01.925Z,71.00
2022-11-18T17:54:30.065Z,70.78
2022-11-18T17:56:58.138Z,70.84
2022-11-18T17:59:26.209Z,70.84
2022-11-18T18:01:58.964Z,70.96
2022-11-18T18:04:28.193Z,70.89
2022-11-18T18:06:56.435Z,71.05
2022-11-18T18:09:29.953Z,70.97
2022-11-18T18:12:00.964Z,71.05
2022-11-18T18:14:29.181Z,71.03
2022-11-18T18:16:57.355Z,70.90
2022-11-18T18:19:25.630Z,71.10
2022-11-18T18:21:53.787Z,71.28
2022-11-18T18:24:22.466Z,71.02
2022-11-18T18:26:51.072Z,70.82
2022-11-18T18:29:19.347Z,70.82
2022-11-18T18:31:47.521Z,71.05
2022-11-18T18:34:15.718Z,70.92
2022-11-18T18:36:43.864Z,71.07
2022-11-18T18:39:11.936Z,71.09
2022-11-18T18:41:40.007Z,71.14
2022-11-18T18:44:08.455Z,70.87
2022-11-18T18:46:39.734Z,70.59
2022-11-18T18:49:13.839Z,70.96
2022-11-18T18:51:44.687Z,71.04
2022-11-18T18:54:15.704Z,71.14
2022-11-18T18:56:45.210Z,71.14
2022-11-18T18:59:13.401Z,71.31
2022-11-18T19:01:41.871Z,71.13
2022-11-18T19:04:13.911Z,71.44
2022-11-18T19:07:00.607Z,71.12
2022-11-18T19:09:29.033Z,71.16
2022-11-18T19:12:16.183Z,71.20
2022-11-18T19:14:44.536Z,71.36
2022-11-18T19:17:13.276Z,71.26
2022-11-18T19:20:01.049Z,71.42
2022-11-18T19:22:31.765Z,71.16
2022-11-18T19:25:00.882Z,71.31
2022-11-18T19:27:30.365Z,71.11
2022-11-18T19:29:58.574Z,71.36
2022-11-18T19:32:26.743Z,71.23
2022-11-18T19:34:54.800Z,71.23
2022-11-18T19:37:22.872Z,71.22
2022-11-18T19:39:50.905Z,71.22
2022-11-18T19:42:19.220Z,71.39
2022-11-18T19:44:47.393Z,71.17
2022-11-18T19:47:16.081Z,71.54
2022-11-18T19:49:44.665Z,71.34
2022-11-18T19:52:13.039Z,71.25
2022-11-18T19:54:41.727Z,71.13
2022-11-18T19:57:09.901Z,70.79
2022-11-18T19:59:38.277Z,70.26
2022-11-18T20:02:07.477Z,70.77
2022-11-18T20:04:35.547Z,70.84
2022-11-18T20:07:04.154Z,70.82
2022-11-18T20:09:32.406Z,70.81
2022-11-18T20:12:00.887Z,71.12
2022-11-18T20:14:28.957Z,71.06
2022-11-18T20:16:57.029Z,70.85
2022-11-18T20:19:25.509Z,71.05
2022-11-18T20:21:53.581Z,71.26
2022-11-18T20:24:21.754Z,71.50
2022-11-18T20:26:49.928Z,71.72
2022-11-18T20:29:18.553Z,71.67
2022-11-18T20:31:46.892Z,71.23
2022-11-18T20:34:15.063Z,71.66
2022-11-18T20:36:43.545Z,71.56
2022-11-18T20:39:16.917Z,71.63
2022-11-18T20:42:11.635Z,71.48
2022-11-18T20:44:39.809Z,71.22
2022-11-18T20:47:07.982Z,71.53
2022-11-18T20:49:36.054Z,71.78
2022-11-18T20:52:04.227Z,71.67
2022-11-18T20:54:33.940Z,71.77
2022-11-18T20:57:02.111Z,72.11
2022-11-18T20:59:30.182Z,72.10
2022-11-18T21:01:58.255Z,72.05
2022-11-18T21:04:26.325Z,72.31
2022-11-18T21:06:59.187Z,72.29
2022-11-18T21:09:32.092Z,72.46
2022-11-18T21:12:00.798Z,72.63
2022-11-18T21:14:28.950Z,72.65
2022-11-18T21:17:01.017Z,72.39
2022-11-18T21:19:29.908Z,72.41
2022-11-18T21:21:57.978Z,72.46
2022-11-18T21:24:31.941Z,72.74
2022-11-18T21:27:02.108Z,72.58
2022-11-18T21:29:33.282Z,72.32
2022-11-18T21:32:01.938Z,72.04
2022-11-18T21:34:30.790Z,72.16
2022-11-18T21:36:59.000Z,71.89
2022-11-18T21:39:27.691Z,71.74
2022-11-18T21:41:57.390Z,71.73
2022-11-18T21:44:28.494Z,71.86
2022-11-18T21:46:57.932Z,72.00
2022-11-18T21:49:26.132Z,72.39
2022-11-18T21:51:54.291Z,72.40
2022-11-18T21:54:22.329Z,72.46
2022-11-18T21:56:50.533Z,72.46
2022-11-18T21:59:19.088Z,72.69
2022-11-18T22:01:47.497Z,72.77
2022-11-18T22:04:35.539Z,72.98
2022-11-18T22:07:03.866Z,73.07
2022-11-18T22:09:36.519Z,73.33
2022-11-18T22:12:06.973Z,73.25
2022-11-18T22:14:36.296Z,73.11
2022-11-18T22:17:05.108Z,73.00
2022-11-18T22:19:33.487Z,72.82
2022-11-18T22:22:01.781Z,73.39
2022-11-18T22:24:30.037Z,73.45
2022-11-18T22:26:58.210Z,73.48
2022-11-18T22:29:26.388Z,73.41
2022-11-18T22:31:54.557Z,73.49
2022-11-18T22:34:22.631Z,73.36
2022-11-18T22:36:50.699Z,73.50
2022-11-18T22:39:19.190Z,73.44
2022-11-18T22:42:05.991Z,73.41
2022-11-18T22:44:34.164Z,73.10
2022-11-18T22:47:02.341Z,73.25
2022-11-18T22:49:30.511Z,73.35
2022-11-18T22:51:59.154Z,73.46
2022-11-18T22:54:42.449Z,73.52
2022-11-18T22:57:10.699Z,73.70
2022-11-18T22:59:38.873Z,73.67
2022-11-18T23:02:07.149Z,73.64
2022-11-18T23:04:35.424Z,73.70
2022-11-18T23:07:04.117Z,73.73
2022-11-18T23:09:32.286Z,73.49
2022-11-18T23:12:18.787Z,73.68
2022-11-18T23:14:46.962Z,73.66
2022-11-18T23:17:16.161Z,73.40
2022-11-18T23:19:44.437Z,73.29
2022-11-18T23:22:13.318Z,73.23
2022-11-18T23:24:41.706Z,73.11
2022-11-18T23:27:09.876Z,73.19
2022-11-18T23:29:38.772Z,73.08
2022-11-18T23:32:07.045Z,72.87
2022-11-18T23:34:35.217Z,73.12
2022-11-18T23:37:03.390Z,72.95
2022-11-18T23:39:31.565Z,72.82
2022-11-18T23:41:59.641Z,72.80
2022-11-18T23:44:45.626Z,72.93
2022-11-18T23:47:14.233Z,73.03
2022-11-18T23:49:42.382Z,73.37
2022-11-18T23:52:11.276Z,72.89
2022-11-18T23:54:39.346Z,73.02
2022-11-18T23:57:07.518Z,73.28
2022-11-18T23:59:35.640Z,73.37
